Time;durP1;ratioP1;P1;durP2;ratioP2;P2;SDS_P1;SDS_P2;PMS_P1;PMS_P2;Temp;Humidity;BMP_temperature;BMP_pressure;BME280_temperature;BME280_humidity;BME280_pressure;Samples;Min_cycle;Max_cycle;Signal;HPM_P1;HPM_P2
2022/11/01 00:02:16;;;;;;;;;;;;;;;;;;5036213;28;19900;-62
2022/11/01 00:04:42;;;;;;;;;;;;;;;;;;5054079;28;19951;-62
2022/11/01 00:07:08;;;;;;;;;;;;;;;;;;5054080;28;20327;-62
2022/11/01 00:09:33;;;;;;;;;;;;;;;;;;5053876;28;19908;-63
2022/11/01 00:11:59;;;;;;;;;;;;;;;;;;5053891;28;19905;-63
2022/11/01 00:14:25;;;;;;;;;;;;;;;;;;5053807;28;19966;-63
2022/11/01 00:16:51;;;;;;;;;;;;;;;;;;5038459;28;19905;-60
2022/11/01 00:19:17;;;;;;;;;;;;;;;;;;5033835;28;20292;-62
2022/11/01 00:21:43;;;;;;;;;;;;;;;;;;5033492;28;20357;-61
2022/11/01 00:24:09;;;;;;;;;;;;;;;;;;5033132;28;19909;-61
2022/11/01 00:26:35;;;;;;;;;;;;;;;;;;5022187;28;20288;-62
2022/11/01 00:29:01;;;;;;;;;;;;;;;;;;5017006;28;20011;-60
2022/11/01 00:31:27;;;;;;;;;;;;;;;;;;5013975;28;19909;-63
2022/11/01 00:33:53;;;;;;;;;;;;;;;;;;5028617;28;19913;-62
2022/11/01 00:36:18;;;;;;;;;;;;;;;;;;5017705;28;19916;-62
2022/11/01 00:38:45;;;;;;;;;;;;;;;;;;5023870;28;20391;-62
2022/11/01 00:41:11;;;;;;;;;;;;;;;;;;5031055;28;19909;-61
2022/11/01 00:43:37;;;;;;;;;;;;;;;;;;5032798;28;19952;-62
2022/11/01 00:46:03;;;;;;;;;;;;;;;;;;5033006;28;19951;-61
2022/11/01 00:48:29;;;;;;;;;;;;;;;;;;5006510;28;19909;-61
2022/11/01 00:50:55;;;;;;;;;;;;;;;;;;5018133;28;20346;-62
2022/11/01 00:53:21;;;;;;;;;;;;;;;;;;5033402;28;19936;-61
2022/11/01 00:55:47;;;;;;;;;;;;;;;;;;5031136;28;19948;-62
2022/11/01 00:58:13;;;;;;;;;;;;;;;;;;5026486;28;19910;-63
2022/11/01 01:00:39;;;;;;;;;;;;;;;;;;5014383;28;19960;-63
2022/11/01 01:03:05;;;;;;;;;;;;;;;;;;5028689;28;19920;-62
2022/11/01 01:05:31;;;;;;;;;;;;;;;;;;5028942;28;19906;-63
2022/11/01 01:07:56;;;;;;;;;;;;;;;;;;5030140;28;19910;-62
2022/11/01 01:10:23;;;;;;;;;;;;;;;;;;5032148;28;19914;-63
2022/11/01 01:12:49;;;;;;;;;;;;;;;;;;5020372;28;19925;-62
2022/11/01 01:15:14;;;;;;;;;;;;;;;;;;5013028;28;20156;-62
2022/11/01 01:17:40;;;;;;;;;;;;;;;;;;5013149;28;20416;-61
2022/11/01 01:20:06;;;;;;;;;;;;;;;;;;5012892;28;20288;-62
2022/11/01 01:22:32;;;;;;;;;;;;;;;;;;5017087;28;19916;-63
2022/11/01 01:24:58;;;;;;;;;;;;;;;;;;5019097;28;19913;-62
2022/11/01 01:27:24;;;;;;;;;;;13.80;88.10;;;;;;5031124;28;19908;-61
2022/11/01 01:29:50;;;;;;;;;;;12.80;90.10;;;;;;5026638;28;20388;-62
2022/11/01 01:32:18;;;;;;;;;;;12.70;90.40;;;;;;5014824;28;19914;-62
2022/11/01 01:34:44;;;;;;;;;;;12.60;90.60;;;;;;5016440;28;19916;-61
2022/11/01 01:37:10;;;;;;;;;;;12.70;90.60;;;;;;5014446;28;19909;-62
2022/11/01 01:39:35;;;;;;;;;;;12.80;90.20;;;;;;5014306;28;19923;-60
2022/11/01 01:42:03;;;;;;;;;;;12.80;90.40;;;;;;5007838;28;19912;-61
2022/11/01 01:44:41;;;;;;;;;;;12.80;90.70;;;;;;5016663;28;19909;-62
2022/11/01 01:47:10;;;;;;;;;;;12.80;91.00;;;;;;5032433;28;19904;-62
2022/11/01 01:49:35;;;;;;;;;;;12.70;90.80;;;;;;5016924;28;19909;-62
2022/11/01 01:52:01;;;;;;;;;;;12.70;90.80;;;;;;5011911;28;19975;-61
2022/11/01 01:54:27;;;;;;;;;;;12.70;90.80;;;;;;5017386;28;19913;-61
2022/11/01 01:56:52;;;;;;;;;;;12.70;90.70;;;;;;5061835;22;19925;-58
2022/11/01 01:59:18;;;;;;;;;;;12.70;90.40;;;;;;5043157;28;19908;-59
2022/11/01 02:01:44;;;;;;;;;;;12.80;90.20;;;;;;5039833;28;19916;-58
2022/11/01 02:04:15;;;;;;;;;;;12.80;90.20;;;;;;5044651;28;19908;-57
2022/11/01 02:06:40;;;;;;;;;;;12.80;90.00;;;;;;5051717;28;19915;-58
2022/11/01 02:09:07;;;;;;;;;;;12.90;90.00;;;;;;5043085;28;19909;-59
2022/11/01 02:11:32;;;;;;;;;;;12.90;89.60;;;;;;5032157;28;19916;-59
2022/11/01 02:13:58;;;;;;;;;;;12.90;90.00;;;;;;5033061;28;19912;-58
2022/11/01 02:16:42;;;;;;;;;;;12.90;90.00;;;;;;5034577;28;19917;-58
2022/11/01 02:19:14;;;;;;;;;;;12.90;89.90;;;;;;5032922;28;19905;-57
2022/11/01 02:21:45;;;;;;;;;;;12.80;90.00;;;;;;5051937;28;19904;-60
2022/11/01 02:24:25;;;;;;;;;;;12.80;90.20;;;;;;5051839;28;19916;-59
2022/11/01 02:27:10;;;;;;;;;;;12.80;90.30;;;;;;5051730;28;20373;-57
2022/11/01 02:29:42;;;;;;;;;;;12.90;90.10;;;;;;5051698;28;19905;-59
2022/11/01 02:32:08;;;;;;;;;;;;;;;;;;5051848;28;19911;-60
2022/11/01 02:34:34;;;;;;;;;;;;;;;;;;5051705;28;19909;-58
2022/11/01 02:37:00;;;;;;;;;;;;;;;;;;5051768;28;19912;-59
2022/11/01 02:39:26;;;;;;;;;;;;;;;;;;5051597;28;19905;-57
2022/11/01 02:41:52;;;;;;;;;;;;;;;;;;5051507;28;19908;-60
2022/11/01 02:44:17;;;;;;;;;;;;;;;;;;5051638;28;19908;-58
2022/11/01 02:47:02;;;;;;;;;;;;;;;;;;5051590;28;20050;-59
2022/11/01 02:49:27;;;;;;;;;;;;;;;;;;5051550;28;20381;-58
2022/11/01 02:51:53;;;;;;;;;;;;;;;;;;5051624;28;19912;-58
2022/11/01 02:54:19;;;;;;;;;;;;;;;;;;5051441;28;19944;-60
2022/11/01 02:56:45;;;;;;;;;;;;;;;;;;5051378;28;19991;-59
2022/11/01 02:59:11;;;;;;;;;;;;;;;;;;5051436;28;19911;-57
2022/11/01 03:01:37;;;;;;;;;;;;;;;;;;5052408;28;19928;-60
2022/11/01 03:04:03;;;;;;;;;;;;;;;;;;5055283;28;19924;-58
2022/11/01 03:06:29;;;;;;;;;;;;;;;;;;5055640;28;19913;-57
2022/11/01 03:08:57;;;;;;;;;;;;;;;;;;5054924;28;19908;-59
2022/11/01 03:11:23;;;;;;;;;;;;;;;;;;5055048;28;19964;-59
2022/11/01 03:13:49;;;;;;;;;;;;;;;;;;5055030;28;19909;-58
2022/11/01 03:16:15;;;;;;;;;;;;;;;;;;5053698;28;19911;-59
2022/11/01 03:18:41;;;;;;;;;;;;;;;;;;5053603;28;19943;-59
2022/11/01 03:21:14;;;;;;;;;;;;;;;;;;5054938;28;20337;-59
2022/11/01 03:23:40;;;;;;;;;;;;;;;;;;5054637;28;19909;-58
2022/11/01 03:26:06;;;;;;;;;;;;;;;;;;5037949;28;19916;-59
2022/11/01 03:28:32;;;;;;;;;;;;;;;;;;5034809;28;19908;-58
2022/11/01 03:30:57;;;;;;;;;;;;;;;;;;5033477;28;20369;-59
2022/11/01 03:33:23;;;;;;;;;;;;;;;;;;5034140;28;19913;-58
2022/11/01 03:35:49;;;;;;;;;;;;;;;;;;5035687;28;19909;-59
2022/11/01 03:38:15;;;;;;;;;;;;;;;;;;5053008;28;19905;-58
2022/11/01 03:40:41;;;;;;;;;;;;;;;;;;5054555;28;20046;-59
2022/11/01 03:43:09;;;;;;;;;;;12.90;89.90;;;;;;5054659;28;20280;-59
2022/11/01 03:45:36;;;;;;;;;;;12.50;91.80;;;;;;5054495;28;19905;-59
2022/11/01 03:48:04;;;;;;;;;;;12.50;91.40;;;;;;5054516;28;19911;-59
2022/11/01 03:50:30;;;;;;;;;;;12.50;91.40;;;;;;5050442;28;19931;-57
2022/11/01 03:52:55;;;;;;;;;;;12.60;90.90;;;;;;5035441;28;20292;-59
2022/11/01 03:55:21;;;;;;;;;;;12.60;90.70;;;;;;5038289;28;20392;-59
2022/11/01 03:57:51;;;;;;;;;;;12.60;90.50;;;;;;5033154;28;19905;-59
2022/11/01 04:00:21;;;;;;;;;;;12.60;90.40;;;;;;5036380;28;19908;-57
2022/11/01 04:02:47;;;;;;;;;;;12.60;90.10;;;;;;5053502;28;19909;-59
2022/11/01 04:05:13;;;;;;;;;;;12.60;90.10;;;;;;5051967;28;19909;-58
2022/11/01 04:07:39;;;;;;;;;;;12.60;90.10;;;;;;5052466;28;20436;-58
2022/11/01 04:10:05;;;;;;;;;;;12.60;90.00;;;;;;5042286;28;20356;-60
2022/11/01 04:12:31;;;;;;;;;;;12.60;89.90;;;;;;5053611;28;19919;-59
2022/11/01 04:20:34;;;;;;;;;;;12.20;90.80;;;;;;5053716;28;19911;-58
2022/11/01 04:23:01;;;;;;;;;;;12.10;91.10;;;;;;5046515;28;20007;-57
2022/11/01 04:25:26;;;;;;;;;;;12.10;91.30;;;;;;5033815;28;19905;-57
2022/11/01 04:27:55;;;;;;;;;;;12.10;91.70;;;;;;5033493;28;20365;-59
2022/11/01 04:30:24;;;;;;;;;;;12.10;91.70;;;;;;5033642;28;20003;-59
2022/11/01 04:32:50;;;;;;;;;;;12.20;91.70;;;;;;5051691;28;19908;-59
2022/11/01 04:35:15;;;;;;;;;;;12.20;91.80;;;;;;5053418;28;19908;-58
2022/11/01 04:37:41;;;;;;;;;;;12.30;91.70;;;;;;5052264;28;19999;-57
2022/11/01 04:40:07;;;;;;;;;;;12.30;91.70;;;;;;5039278;28;19916;-59
2022/11/01 04:42:36;;;;;;;;;;;12.20;91.70;;;;;;5032948;28;20395;-57
2022/11/01 04:45:03;;;;;;;;;;;12.30;91.80;;;;;;5033257;28;19912;-59
2022/11/01 04:47:28;;;;;;;;;;;12.30;91.60;;;;;;5033586;28;19909;-58
2022/11/01 04:49:54;;;;;;;;;;;12.20;91.70;;;;;;5053173;28;19927;-59
2022/11/01 04:52:19;;;;;;;;;;;12.20;92.00;;;;;;5050103;28;19908;-58
2022/11/01 04:54:45;;;;;;;;;;;12.20;92.00;;;;;;5032796;28;20412;-58
2022/11/01 04:57:21;;;;;;;;;;;12.30;91.90;;;;;;5033243;28;19917;-57
2022/11/01 04:59:50;;;;;;;;;;;12.40;91.70;;;;;;5033037;28;20011;-60
2022/11/01 05:02:16;;;;;;;;;;;12.40;91.60;;;;;;5032759;28;19905;-59
2022/11/01 05:04:42;;;;;;;;;;;12.40;91.30;;;;;;5033281;28;19905;-57
2022/11/01 05:07:08;;;;;;;;;;;12.50;91.30;;;;;;5031619;28;19913;-59
2022/11/01 05:09:33;;;;;;;;;;;12.50;91.10;;;;;;5032766;28;19905;-60
2022/11/01 05:11:59;;;;;;;;;;;12.50;91.00;;;;;;5032820;28;19948;-59
2022/11/01 05:14:24;;;;;;;;;;;12.50;91.00;;;;;;5032298;28;19909;-58
2022/11/01 05:16:50;;;;;;;;;;;12.50;91.10;;;;;;5032123;28;19905;-57
2022/11/01 05:19:15;;;;;;;;;;;12.50;91.10;;;;;;5032252;28;19905;-59
2022/11/01 05:21:41;;;;;;;;;;;12.60;91.00;;;;;;5032300;28;19912;-59
2022/11/01 05:24:06;;;;;;;;;;;12.60;90.90;;;;;;5032697;28;20416;-59
2022/11/01 05:26:32;;;;;;;;;;;12.60;90.80;;;;;;5031265;28;20365;-59
2022/11/01 05:28:58;;;;;;;;;;;12.70;90.70;;;;;;5032733;28;19931;-59
2022/11/01 05:31:23;;;;;;;;;;;12.60;90.80;;;;;;5032719;28;20440;-59
2022/11/01 05:33:49;;;;;;;;;;;12.60;90.80;;;;;;5032605;28;20432;-60
2022/11/01 05:36:14;;;;;;;;;;;12.60;90.70;;;;;;5032519;28;20362;-60
2022/11/01 05:38:40;;;;;;;;;;;12.50;90.80;;;;;;5032345;28;19913;-58
2022/11/01 05:41:05;;;;;;;;;;;12.50;91.00;;;;;;5032570;28;19931;-59
2022/11/01 05:43:31;;;;;;;;;;;12.50;90.90;;;;;;5032755;28;20388;-59
2022/11/01 05:45:56;;;;;;;;;;;12.60;90.90;;;;;;5032476;28;19912;-57
2022/11/01 05:48:22;;;;;;;;;;;12.60;90.80;;;;;;5032346;28;20376;-59
2022/11/01 05:50:47;;;;;;;;;;;12.60;90.70;;;;;;5032439;28;20405;-59
2022/11/01 05:53:13;;;;;;;;;;;12.60;90.70;;;;;;5032339;28;20365;-58
2022/11/01 05:55:40;;;;;;;;;;;12.70;90.70;;;;;;5031861;28;19921;-59
2022/11/01 05:58:05;;;;;;;;;;;12.70;90.90;;;;;;5032371;28;19912;-59
2022/11/01 06:00:31;;;;;;;;;;;12.70;90.60;;;;;;5032446;28;19924;-58
2022/11/01 06:02:57;;;;;;;;;;;12.70;90.60;;;;;;5032338;28;19937;-59
2022/11/01 06:05:23;;;;;;;;;;;12.70;90.50;;;;;;5032206;28;20324;-59
2022/11/01 06:07:48;;;;;;;;;;;12.60;90.50;;;;;;5031024;28;19908;-60
2022/11/01 06:10:14;;;;;;;;;;;12.70;90.50;;;;;;5030712;28;19905;-59
2022/11/01 06:12:40;;;;;;;;;;;12.60;90.60;;;;;;5032202;28;19905;-58
2022/11/01 06:15:06;;;;;;;;;;;12.70;90.70;;;;;;5030774;28;19968;-59
2022/11/01 06:17:32;;;;;;;;;;;;;;;;;;5030954;28;20351;-60
2022/11/01 06:19:58;;;;;;;;;;;;;;;;;;5032048;28;20484;-58
2022/11/01 06:22:24;;;;;;;;;;;;;;;;;;5032119;28;19912;-59
2022/11/01 06:24:50;;;;;;;;;;;;;;;;;;5031987;28;19905;-58
2022/11/01 06:27:16;;;;;;;;;;;;;;;;;;5030659;28;19905;-59
2022/11/01 06:29:42;;;;;;;;;;;;;;;;;;5031963;28;19924;-59
2022/11/01 06:32:08;;;;;;;;;;;;;;;;;;5032178;28;19999;-57
2022/11/01 06:34:34;;;;;;;;;;;;;;;;;;5031924;28;19992;-59
2022/11/01 06:37:00;;;;;;;;;;;;;;;;;;5033271;28;19909;-60
2022/11/01 06:39:25;;;;;;;;;;;;;;;;;;5035600;28;19996;-59
2022/11/01 06:41:51;;;;;;;;;;;;;;;;;;5035919;28;19952;-59
2022/11/01 06:44:17;;;;;;;;;;;;;;;;;;5035907;28;19912;-59
2022/11/01 06:46:43;;;;;;;;;;;;;;;;;;5035729;28;19912;-59
2022/11/01 06:49:09;;;;;;;;;;;;;;;;;;5035562;28;19910;-58
2022/11/01 06:51:35;;;;;;;;;;;;;;;;;;5035650;28;19905;-59
2022/11/01 06:54:01;;;;;;;;;;;;;;;;;;5034200;28;20372;-60
2022/11/01 06:56:27;;;;;;;;;;;;;;;;;;5035394;28;19913;-59
2022/11/01 06:58:53;;;;;;;;;;;;;;;;;;5035370;28;19901;-55
2022/11/01 07:01:20;;;;;;;;;;;;;;;;;;5034608;28;19909;-54
2022/11/01 07:03:46;;;;;;;;;;;;;;;;;;5033755;28;19920;-55
2022/11/01 07:06:13;;;;;;;;;;;;;;;;;;5035180;28;19909;-55
2022/11/01 07:08:39;;;;;;;;;;;;;;;;;;5035015;28;20667;-54
2022/11/01 07:11:05;;;;;;;;;;;;;;;;;;5034034;28;19944;-57
2022/11/01 07:13:32;;;;;;;;;;;;;;;;;;5035131;28;19936;-54
2022/11/01 07:16:00;;;;;;;;;;;;;;;;;;5035205;28;20427;-54
2022/11/01 07:18:28;;;;;;;;;;;;;;;;;;5035139;28;20009;-54
2022/11/01 07:20:54;;;;;;;;;;;;;;;;;;5034956;28;19905;-57
2022/11/01 07:23:20;;;;;;;;;;;;;;;;;;5035072;28;19915;-59
2022/11/01 07:25:46;;;;;;;;;;;;;;;;;;5034954;28;19912;-59
2022/11/01 07:28:12;;;;;;;;;;;;;;;;;;5034884;28;20373;-59
2022/11/01 07:30:38;;;;;;;;;;;;;;;;;;5034958;28;19909;-57
2022/11/01 07:33:04;;;;;;;;;;;;;;;;;;5034974;28;19905;-59
2022/11/01 07:35:30;;;;;;;;;;;;;;;;;;5034616;28;19909;-59
2022/11/01 07:37:56;;;;;;;;;;;;;;;;;;5034925;28;19995;-58
2022/11/01 07:40:26;;;;;;;;;;;;;;;;;;5034761;28;19916;-60
2022/11/01 07:42:52;;;;;;;;;;;;;;;;;;5034306;28;19960;-59
2022/11/01 07:45:18;;;;;;;;;;;;;;;;;;5034646;28;20289;-58
2022/11/01 07:47:44;;;;;;;;;;;;;;;;;;5033750;28;19905;-59
2022/11/01 07:50:09;;;;;;;;;;;;;;;;;;5033764;28;19905;-54
2022/11/01 07:52:35;;;;;;;;;;;;;;;;;;5034778;28;19905;-54
2022/11/01 07:55:01;;;;;;;;;;;;;;;;;;5034313;28;20605;-55
2022/11/01 07:57:27;;;;;;;;;;;;;;;;;;5034904;28;19963;-54
2022/11/01 07:59:53;;;;;;;;;;;;;;;;;;5033031;28;20001;-53
2022/11/01 08:02:19;;;;;;;;;;;;;;;;;;5034177;28;20262;-52
2022/11/01 08:04:45;;;;;;;;;;;;;;;;;;5033759;28;19996;-52
2022/11/01 08:07:11;;;;;;;;;;;;;;;;;;5034193;28;19909;-53
2022/11/01 08:09:37;;;;;;;;;;;;;;;;;;5034191;28;20350;-52
2022/11/01 08:12:03;;;;;;;;;;;;;;;;;;5034343;28;19912;-52
2022/11/01 08:14:29;;;;;;;;;;;;;;;;;;5033687;28;19935;-59
2022/11/01 08:16:59;;;;;;;;;;;;;;;;;;5033406;28;19909;-60
2022/11/01 08:19:25;;;;;;;;;;;;;;;;;;5033377;28;19905;-63
2022/11/01 08:21:51;;;;;;;;;;;;;;;;;;5033912;28;19959;-63
2022/11/01 08:24:17;;;;;;;;;;;;;;;;;;5034049;28;19904;-63
2022/11/01 08:26:43;;;;;;;;;;;;;;;;;;5032020;28;20324;-59
2022/11/01 08:29:09;;;;;;;;;;;;;;;;;;5033478;28;20274;-60
2022/11/01 08:31:34;;;;;;;;;;;;;;;;;;5032482;28;19905;-59
2022/11/01 08:34:00;;;;;;;;;;;;;;;;;;5032906;28;19909;-59
2022/11/01 08:36:26;;;;;;;;;;;;;;;;;;5032997;28;20274;-60
2022/11/01 08:38:52;;;;;;;;;;;;;;;;;;5032926;28;19905;-59
2022/11/01 08:41:18;;;;;;;;;;;;;;;;;;5033065;28;19912;-60
2022/11/01 08:43:44;;;;;;;;;;;;;;;;;;5032117;28;19901;-64
2022/11/01 08:46:10;;;;;;;;;;;;;;;;;;5033571;28;19905;-59
2022/11/01 08:48:36;;;;;;;;;;;;;;;;;;5033188;28;19947;-60
2022/11/01 08:51:02;;;;;;;;;;;;;;;;;;5032985;28;19928;-59
2022/11/01 08:53:28;;;;;;;;;;;;;;;;;;5033353;28;19913;-60
2022/11/01 08:55:54;;;;;;;;;;;;;;;;;;5031819;28;19912;-59
2022/11/01 08:58:19;;;;;;;;;;;;;;;;;;5031940;28;19909;-60
2022/11/01 09:00:45;;;;;;;;;;;;;;;;;;5032696;28;19905;-60
2022/11/01 09:03:11;;;;;;;;;;;;;;;;;;5032853;28;19913;-59
2022/11/01 09:05:37;;;;;;;;;;;;;;;;;;5032974;28;19905;-60
2022/11/01 09:08:03;;;;;;;;;;;;;;;;;;5033071;28;20312;-60
2022/11/01 09:10:29;;;;;;;;;;;;;;;;;;5033181;28;20540;-60
2022/11/01 09:12:55;;;;;;;;;;;;;;;;;;5033007;28;20330;-60
2022/11/01 09:15:21;;;;;;;;;;;;;;;;;;5033256;28;19960;-60
2022/11/01 09:17:47;;;;;;;;;;;17.00;82.30;;;;;;5032712;28;20004;-57
2022/11/01 09:20:14;;;;;;;;;;;17.00;81.80;;;;;;5032675;28;19931;-53
2022/11/01 09:22:39;;;;;;;;;;;17.10;81.60;;;;;;5032865;28;19909;-55
2022/11/01 09:25:05;;;;;;;;;;;17.10;81.40;;;;;;5032722;28;19909;-53
2022/11/01 09:27:30;;;;;;;;;;;17.20;81.10;;;;;;5032759;28;19905;-52
2022/11/01 09:29:56;;;;;;;;;;;17.20;81.30;;;;;;5032526;28;19912;-52
2022/11/01 09:32:22;;;;;;;;;;;17.20;80.40;;;;;;5032530;28;19932;-52
2022/11/01 09:34:50;;;;;;;;;;;17.20;80.40;;;;;;5032590;28;19909;-54
2022/11/01 09:37:15;;;;;;;;;;;17.20;80.40;;;;;;5032447;28;20278;-55
2022/11/01 09:39:41;;;;;;;;;;;17.20;80.40;;;;;;5032502;28;19909;-52
2022/11/01 09:42:10;;;;;;;;;;;17.10;80.50;;;;;;5032532;28;19955;-52
2022/11/01 09:44:38;;;;;;;;;;;17.00;81.40;;;;;;5032723;28;19951;-54
2022/11/01 09:47:11;;;;;;;;;;;17.10;81.50;;;;;;5032035;28;19905;-52
2022/11/01 09:49:38;;;;;;;;;;;17.20;81.00;;;;;;5032393;28;19916;-52
2022/11/01 09:52:05;;;;;;;;;;;17.30;80.80;;;;;;5032576;28;20397;-53
2022/11/01 09:54:30;;;;;;;;;;;17.30;80.00;;;;;;5032402;28;19909;-54
2022/11/01 09:57:05;;;;;;;;;;;17.40;80.00;;;;;;5032278;28;20354;-53
2022/11/01 09:59:47;;;;;;;;;;;17.40;80.20;;;;;;5032106;28;20369;-53
2022/11/01 10:02:24;;;;;;;;;;;17.40;80.50;;;;;;5032313;28;19912;-53
2022/11/01 10:04:59;;;;;;;;;;;17.50;79.90;;;;;;5031025;28;19912;-55
2022/11/01 10:07:31;;;;;;;;;;;17.50;79.90;;;;;;5032328;28;19959;-53
2022/11/01 10:09:59;;;;;;;;;;;17.40;79.90;;;;;;5032045;28;19905;-55
2022/11/01 10:12:25;;;;;;;;;;;17.40;79.40;;;;;;5031445;28;20309;-53
2022/11/01 10:14:57;;;;;;;;;;;17.50;79.40;;;;;;5032056;28;19935;-54
2022/11/01 10:17:29;;;;;;;;;;;17.50;79.00;;;;;;5031641;28;19915;-54
2022/11/01 10:19:55;;;;;;;;;;;17.60;78.70;;;;;;5030715;28;19905;-52
2022/11/01 10:22:27;;;;;;;;;;;17.60;77.60;;;;;;5030983;28;19931;-52
2022/11/01 10:25:11;;;;;;;;;;;17.60;78.40;;;;;;5031461;28;19944;-52
2022/11/01 10:27:55;;;;;;;;;;;17.60;77.10;;;;;;5031971;28;19906;-53
2022/11/01 10:30:21;;;;;;;;;;;17.50;77.90;;;;;;5031753;28;19905;-55
2022/11/01 10:32:46;;;;;;;;;;;17.50;78.60;;;;;;5031871;28;19912;-54
2022/11/01 10:35:14;;;;;;;;;;;17.50;78.40;;;;;;5030399;28;20381;-52
2022/11/01 10:37:43;;;;;;;;;;;17.60;78.80;;;;;;5031937;28;19905;-52
2022/11/01 10:40:14;;;;;;;;;;;17.60;78.20;;;;;;5031763;28;20285;-52
2022/11/01 10:42:40;;;;;;;;;;;17.50;77.60;;;;;;5031943;28;19905;-53
2022/11/01 10:45:07;;;;;;;;;;;17.50;77.70;;;;;;5031628;28;19905;-52
2022/11/01 10:47:33;;;;;;;;;;;17.60;77.40;;;;;;5031775;28;19905;-54
2022/11/01 10:49:58;;;;;;;;;;;17.70;77.20;;;;;;5031583;28;19911;-52
2022/11/01 10:52:31;;;;;;;;;;;17.70;76.10;;;;;;5031789;28;19909;-52
2022/11/01 10:54:57;;;;;;;;;;;17.60;75.50;;;;;;5031595;28;19916;-52
2022/11/01 10:57:23;;;;;;;;;;;17.60;75.90;;;;;;5031521;28;19913;-52
2022/11/01 10:59:48;;;;;;;;;;;17.60;75.40;;;;;;5031352;28;20377;-52
2022/11/01 11:02:37;;;;;;;;;;;17.70;76.00;;;;;;5031690;28;19920;-53
2022/11/01 11:05:03;;;;;;;;;;;17.70;75.40;;;;;;5023428;28;19905;-53
2022/11/01 11:07:30;;;;;;;;;;;17.80;75.60;;;;;;5031685;28;19911;-52
2022/11/01 11:09:55;;;;;;;;;;;17.90;73.60;;;;;;5031515;28;20031;-54
2022/11/01 11:12:22;;;;;;;;;;;17.80;74.50;;;;;;5031426;28;20121;-52
2022/11/01 11:15:11;;;;;;;;;;;17.80;75.30;;;;;;5031386;28;20468;-52
2022/11/01 11:17:38;;;;;;;;;;;18.00;75.00;;;;;;5031861;28;19905;-51
2022/11/01 11:20:06;;;;;;;;;;;18.20;74.00;;;;;;5031436;28;19905;-54
2022/11/01 11:22:36;;;;;;;;;;;18.20;72.60;;;;;;5032984;28;19990;-51
2022/11/01 11:25:01;;;;;;;;;;;18.30;73.00;;;;;;5036080;28;19913;-51
2022/11/01 11:27:29;;;;;;;;;;;18.40;73.40;;;;;;5035874;28;19924;-51
2022/11/01 11:29:56;;;;;;;;;;;18.40;73.00;;;;;;5035009;28;19905;-52
2022/11/01 11:32:32;;;;;;;;;;;18.50;72.60;;;;;;5033342;28;19919;-53
2022/11/01 11:34:59;;;;;;;;;;;18.50;71.30;;;;;;5032258;28;20423;-54
2022/11/01 11:37:27;;;;;;;;;;;18.50;71.80;;;;;;5033483;28;20269;-53
2022/11/01 11:40:01;;;;;;;;;;;18.50;71.80;;;;;;5034122;28;20003;-61
2022/11/01 11:42:29;;;;;;;;;;;18.60;72.10;;;;;;5033650;28;19905;-53
2022/11/01 11:45:06;;;;;;;;;;;18.70;71.60;;;;;;5035581;28;20360;-53
2022/11/01 11:47:36;;;;;;;;;;;18.60;71.50;;;;;;5043346;28;19913;-52
2022/11/01 11:50:22;;;;;;;;;;;18.50;72.50;;;;;;5038056;28;19908;-52
2022/11/01 11:53:23;;;;;;;;;;;18.60;72.00;;;;;;5047700;28;19905;-52
2022/11/01 11:55:56;;;;;;;;;;;18.70;72.40;;;;;;5020269;28;19914;-53
2022/11/01 11:58:26;;;;;;;;;;;18.90;70.90;;;;;;5007612;28;19906;-52
2022/11/01 12:00:54;;;;;;;;;;;18.80;70.90;;;;;;5052681;28;19913;-52
2022/11/01 12:03:20;;;;;;;;;;;18.80;71.70;;;;;;5036530;28;19908;-52
2022/11/01 12:05:50;;;;;;;;;;;18.90;71.90;;;;;;5045951;28;19955;-52
2022/11/01 12:08:39;;;;;;;;;;;19.00;71.30;;;;;;5054132;28;19905;-52
2022/11/01 12:11:04;;;;;;;;;;;18.90;71.00;;;;;;5040967;28;20005;-53
2022/11/01 12:13:35;;;;;;;;;;;19.00;71.20;;;;;;5053837;28;19944;-52
2022/11/01 12:16:05;;;;;;;;;;;19.10;71.00;;;;;;5040988;28;19919;-52
2022/11/01 12:18:30;;;;;;;;;;;19.10;70.30;;;;;;5030837;28;20321;-54
2022/11/01 12:20:57;;;;;;;;;;;19.10;70.60;;;;;;5033754;28;19916;-54
2022/11/01 12:23:27;;;;;;;;;;;19.10;70.60;;;;;;5034023;28;19905;-55
2022/11/01 12:25:54;;;;;;;;;;;19.20;70.70;;;;;;5035142;28;20281;-53
2022/11/01 12:28:30;;;;;;;;;;;19.20;70.60;;;;;;5032501;28;20381;-54
2022/11/01 12:30:58;;;;;;;;;;;19.30;70.80;;;;;;5034921;28;19954;-55
2022/11/01 12:33:32;;;;;;;;;;;19.40;70.80;;;;;;5033467;28;20332;-54
2022/11/01 12:35:58;;;;;;;;;;;19.30;69.80;;;;;;5032708;28;20384;-54
2022/11/01 12:38:30;;;;;;;;;;;19.20;70.70;;;;;;5032967;28;19909;-55
2022/11/01 12:40:56;;;;;;;;;;;19.30;70.10;;;;;;5033408;28;19951;-53
2022/11/01 12:43:34;;;;;;;;;;;19.30;70.70;;;;;;5033414;28;20026;-53
2022/11/01 12:46:01;;;;;;;;;;;19.40;71.20;;;;;;5033834;28;19975;-53
2022/11/01 12:48:30;;;;;;;;;;;19.50;70.70;;;;;;5034443;28;19924;-55
2022/11/01 12:51:08;;;;;;;;;;;19.40;70.80;;;;;;5033462;28;19988;-55
2022/11/01 12:53:40;;;;;;;;;;;19.40;71.40;;;;;;5033390;28;20317;-53
2022/11/01 12:56:05;;;;;;;;;;;19.30;71.10;;;;;;5050394;28;19970;-55
2022/11/01 12:58:31;;;;;;;;;;;19.30;71.10;;;;;;5050449;28;20356;-54
2022/11/01 13:01:00;;;;;;;;;;;19.30;71.70;;;;;;5032653;28;19909;-53
2022/11/01 13:03:40;;;;;;;;;;;19.20;71.20;;;;;;5030247;28;19905;-53
2022/11/01 13:06:24;;;;;;;;;;;19.30;71.70;;;;;;5050191;28;19912;-52
2022/11/01 13:08:56;;;;;;;;;;;19.20;72.20;;;;;;5048377;28;20327;-53
2022/11/01 13:11:25;;;;;;;;;;;19.30;71.70;;;;;;5048583;28;19916;-55
2022/11/01 13:13:57;;;;;;;;;;;19.30;72.00;;;;;;5031680;28;20281;-53
2022/11/01 13:16:31;;;;;;;;;;;19.20;72.00;;;;;;5032992;28;19916;-52
2022/11/01 13:19:03;;;;;;;;;;;19.20;71.80;;;;;;5031543;28;20366;-52
2022/11/01 13:21:34;;;;;;;;;;;19.20;71.70;;;;;;5013250;28;20390;-55
2022/11/01 13:24:06;;;;;;;;;;;19.30;71.90;;;;;;5011864;28;20259;-55
2022/11/01 13:26:53;;;;;;;;;;;19.30;72.00;;;;;;5022263;28;19909;-55
2022/11/01 13:29:24;;;;;;;;;;;19.40;72.00;;;;;;5049631;28;19908;-53
2022/11/01 13:31:53;;;;;;;;;;;19.50;72.00;;;;;;5032651;28;19905;-55
2022/11/01 13:34:27;;;;;;;;;;;19.50;72.10;;;;;;5032613;28;19909;-55
2022/11/01 13:36:59;;;;;;;;;;;19.50;71.40;;;;;;5038982;28;19917;-54
2022/11/01 13:39:36;;;;;;;;;;;19.50;71.80;;;;;;5049002;28;19908;-55
2022/11/01 13:42:28;;;;;;;;;;;19.40;72.10;;;;;;5041005;28;19909;-55
2022/11/01 13:45:05;;;;;;;;;;;19.40;72.00;;;;;;5028880;28;19905;-52
2022/11/01 13:47:43;;;;;;;;;;;19.50;71.60;;;;;;5041458;28;20289;-52
2022/11/01 13:50:12;;;;;;;;;;;19.50;71.70;;;;;;5040988;28;19954;-55
2022/11/01 13:53:07;;;;;;;;;;;19.50;71.90;;;;;;5052248;28;19956;-55
2022/11/01 13:55:43;;;;;;;;;;;19.60;71.70;;;;;;5033835;28;19913;-53
2022/11/01 13:58:27;;;;;;;;;;;19.50;71.70;;;;;;5052245;28;19992;-52
2022/11/01 14:00:54;;;;;;;;;;;19.60;71.90;;;;;;5037423;28;19962;-53
2022/11/01 14:03:22;;;;;;;;;;;19.50;71.90;;;;;;5036327;28;20434;-52
2022/11/01 14:06:10;;;;;;;;;;;19.50;72.10;;;;;;5046506;28;20262;-52
2022/11/01 14:08:40;;;;;;;;;;;19.50;72.30;;;;;;5023251;28;19909;-55
2022/11/01 14:11:06;;;;;;;;;;;19.50;72.20;;;;;;5032865;28;20388;-52
2022/11/01 14:13:34;;;;;;;;;;;19.50;72.30;;;;;;5048555;28;20447;-55
2022/11/01 14:16:00;;;;;;;;;;;19.50;72.50;;;;;;5033675;28;19904;-54
2022/11/01 14:18:26;;;;;;;;;;;19.50;72.50;;;;;;5032674;28;19909;-53
2022/11/01 14:20:52;;;;;;;;;;;19.40;72.70;;;;;;5032112;28;19951;-52
2022/11/01 14:23:26;;;;;;;;;;;19.30;73.30;;;;;;5031496;28;19924;-52
2022/11/01 14:26:10;;;;;;;;;;;19.20;73.60;;;;;;5029070;28;20417;-53
2022/11/01 14:28:40;;;;;;;;;;;19.20;74.00;;;;;;5029555;28;20274;-54
2022/11/01 14:31:06;;;;;;;;;;;19.20;74.20;;;;;;5033236;28;19908;-55
2022/11/01 14:33:32;;;;;;;;;;;19.20;74.70;;;;;;5031094;28;20015;-53
2022/11/01 14:35:58;;;;;;;;;;;19.10;74.90;;;;;;5031874;28;19913;-53
2022/11/01 14:38:32;;;;;;;;;;;19.00;76.00;;;;;;5037508;28;19909;-54
2022/11/01 14:40:58;;;;;;;;;;;18.90;77.00;;;;;;5032465;28;20012;-55
2022/11/01 14:43:24;;;;;;;;;;;18.80;77.50;;;;;;5031766;28;19931;-55
2022/11/01 14:46:10;;;;;;;;;;;18.70;79.20;;;;;;5032289;28;20373;-55
2022/11/01 14:48:54;;;;;;;;;;;18.70;80.20;;;;;;5031118;28;19928;-54
2022/11/01 14:51:26;;;;;;;;;;;18.60;80.80;;;;;;5031579;28;19913;-54
2022/11/01 14:53:59;;;;;;;;;;;18.40;83.30;;;;;;5027464;28;20366;-53
2022/11/01 14:56:32;;;;;;;;;;;18.30;83.10;;;;;;5031199;28;19912;-53
2022/11/01 14:59:11;;;;;;;;;;;18.20;84.60;;;;;;5034474;28;19915;-53
2022/11/01 15:01:42;;;;;;;;;;;18.10;85.70;;;;;;5035014;28;19916;-52
2022/11/01 15:04:15;;;;;;;;;;;17.90;87.30;;;;;;5035457;28;19963;-52
2022/11/01 15:06:42;;;;;;;;;;;17.80;87.40;;;;;;5031699;28;19955;-52
2022/11/01 15:09:16;;;;;;;;;;;17.80;88.60;;;;;;5035048;28;19984;-53
2022/11/01 15:11:42;;;;;;;;;;;17.70;89.60;;;;;;5034333;28;19952;-52
2022/11/01 15:14:07;;;;;;;;;;;17.60;90.30;;;;;;5035033;28;19967;-51
2022/11/01 15:16:34;;;;;;;;;;;17.50;90.90;;;;;;5031758;28;19909;-52
2022/11/01 15:19:05;;;;;;;;;;;17.60;90.30;;;;;;5050488;28;19909;-54
2022/11/01 15:21:32;;;;;;;;;;;17.60;90.50;;;;;;5035117;28;19916;-52